createdAt,value
2022-11-03T00:01:06.582Z,4.55
2022-11-03T00:03:34.249Z,3.90
2022-11-03T00:06:07.469Z,4.13
2022-11-03T00:08:42.507Z,3.58
2022-11-03T00:11:14.531Z,4.40
2022-11-03T00:13:43.424Z,3.53
2022-11-03T00:16:12.260Z,4.28
2022-11-03T00:18:40.470Z,3.95
2022-11-03T00:21:11.930Z,4.18
2022-11-03T00:23:40.577Z,4.80
2022-11-03T00:26:15.091Z,4.70
2022-11-03T00:28:43.527Z,4.00
2022-11-03T00:31:11.977Z,3.85
2022-11-03T00:33:39.816Z,4.10
2022-11-03T00:36:07.465Z,4.68
2022-11-03T00:38:35.459Z,4.10
2022-11-03T00:41:03.463Z,4.40
2022-11-03T00:43:32.023Z,4.07
2022-11-03T00:45:59.609Z,4.78
2022-11-03T00:48:29.723Z,4.07
2022-11-03T00:51:15.079Z,4.57
2022-11-03T00:53:43.904Z,3.42
2022-11-03T00:56:12.783Z,3.63
2022-11-03T00:58:40.123Z,4.00
2022-11-03T01:01:09.228Z,3.33
2022-11-03T01:03:38.160Z,3.45
2022-11-03T01:06:28.929Z,3.75
2022-11-03T01:08:56.355Z,3.65
2022-11-03T01:11:43.240Z,3.28
2022-11-03T01:14:11.288Z,3.40
2022-11-03T01:16:39.043Z,3.63
2022-11-03T01:19:06.584Z,4.20
2022-11-03T01:21:34.647Z,3.55
2022-11-03T01:24:02.817Z,3.72
2022-11-03T01:26:30.120Z,3.78
2022-11-03T01:28:57.578Z,3.50
2022-11-03T01:31:26.214Z,3.92
2022-11-03T01:33:54.813Z,3.90
2022-11-03T01:36:22.619Z,4.15
2022-11-03T01:38:50.029Z,4.18
2022-11-03T01:41:19.307Z,4.60
2022-11-03T01:43:48.151Z,4.50
2022-11-03T01:46:23.754Z,4.60
2022-11-03T01:48:58.720Z,4.07
2022-11-03T01:51:26.811Z,4.45
2022-11-03T01:53:55.595Z,4.03
2022-11-03T01:56:24.400Z,4.20
2022-11-03T01:58:54.860Z,4.07
2022-11-03T02:01:23.117Z,3.90
2022-11-03T02:03:53.164Z,4.05
2022-11-03T02:06:23.443Z,3.85
2022-11-03T02:08:56.787Z,4.35
2022-11-03T02:11:42.951Z,4.77
2022-11-03T02:14:14.200Z,4.18
2022-11-03T02:16:44.925Z,5.10
2022-11-03T02:19:35.445Z,4.93
2022-11-03T02:22:21.647Z,4.60
2022-11-03T02:24:54.347Z,5.00
2022-11-03T02:27:22.371Z,4.35
2022-11-03T02:29:49.840Z,4.03
2022-11-03T02:32:30.111Z,4.38
2022-11-03T02:35:03.606Z,4.57
2022-11-03T02:37:33.756Z,4.57
2022-11-03T02:40:07.760Z,4.05
2022-11-03T02:42:36.746Z,4.00
2022-11-03T02:45:06.345Z,4.43
2022-11-03T02:47:34.210Z,4.35
2022-11-03T02:50:01.710Z,4.63
2022-11-03T02:52:38.104Z,4.07
2022-11-03T02:55:23.924Z,4.05
2022-11-03T02:58:00.146Z,3.80
2022-11-03T03:00:28.924Z,3.80
2022-11-03T03:03:00.928Z,3.45
2022-11-03T03:05:29.963Z,4.20
2022-11-03T03:08:01.215Z,3.67
2022-11-03T03:10:34.492Z,3.78
2022-11-03T03:13:02.450Z,3.90
2022-11-03T03:15:48.683Z,3.88
2022-11-03T03:18:15.988Z,3.70
2022-11-03T03:20:50.358Z,4.15
2022-11-03T03:23:19.940Z,4.43
2022-11-03T03:25:54.999Z,4.20
2022-11-03T03:28:26.009Z,4.55
2022-11-03T03:30:56.113Z,4.13
2022-11-03T03:33:23.853Z,4.22
2022-11-03T03:35:52.447Z,4.53
2022-11-03T03:38:24.387Z,3.72
2022-11-03T03:40:53.349Z,3.70
2022-11-03T03:43:21.063Z,3.80
2022-11-03T03:45:50.279Z,3.80
2022-11-03T03:48:18.242Z,3.33
2022-11-03T03:50:47.942Z,3.78
2022-11-03T03:53:16.420Z,3.75
2022-11-03T03:55:45.663Z,3.60
2022-11-03T03:58:14.027Z,3.70
2022-11-03T04:00:41.804Z,3.55
2022-11-03T04:03:20.236Z,4.18
2022-11-03T04:05:48.273Z,3.50
2022-11-03T04:08:16.194Z,3.30
2022-11-03T04:11:03.700Z,3.55
2022-11-03T04:13:50.017Z,3.80
2022-11-03T04:16:36.220Z,3.53
2022-11-03T04:19:22.747Z,3.35
2022-11-03T04:22:08.904Z,4.32
2022-11-03T04:24:36.167Z,3.92
2022-11-03T04:27:14.695Z,4.00
2022-11-03T04:29:41.960Z,4.43
2022-11-03T04:32:14.077Z,4.22
2022-11-03T04:34:42.499Z,3.75
2022-11-03T04:37:12.116Z,4.43
2022-11-03T04:39:39.652Z,3.95
2022-11-03T04:42:17.812Z,4.10
2022-11-03T04:44:45.772Z,4.05
2022-11-03T04:47:14.618Z,4.25
2022-11-03T04:49:45.759Z,4.22
2022-11-03T04:52:15.584Z,4.30
2022-11-03T04:54:43.277Z,4.22
2022-11-03T04:57:14.387Z,3.90
2022-11-03T04:59:42.512Z,3.50
2022-11-03T05:02:14.952Z,4.05
2022-11-03T05:04:43.454Z,4.35
2022-11-03T05:07:17.718Z,4.05
2022-11-03T05:12:12.837Z,3.65
2022-11-03T05:14:40.288Z,4.05
2022-11-03T05:17:22.970Z,3.80
2022-11-03T05:19:51.701Z,4.65
2022-11-03T05:22:20.762Z,4.38
2022-11-03T05:24:48.278Z,3.92
2022-11-03T05:27:22.659Z,4.53
2022-11-03T05:29:52.951Z,4.95
2022-11-03T05:32:26.620Z,5.15
2022-11-03T05:34:54.983Z,4.82
2022-11-03T05:37:31.760Z,4.75
2022-11-03T05:40:11.881Z,5.35
2022-11-03T05:42:41.935Z,4.40
2022-11-03T05:45:16.797Z,4.20
2022-11-03T05:47:44.154Z,4.47
2022-11-03T05:50:21.800Z,3.90
2022-11-03T05:52:50.575Z,4.32
2022-11-03T05:55:29.364Z,4.32
2022-11-03T05:57:58.837Z,3.97
2022-11-03T06:00:31.000Z,6.13
2022-11-03T06:02:59.028Z,4.75
2022-11-03T06:05:27.093Z,4.43
2022-11-03T06:07:55.848Z,4.75
2022-11-03T06:10:29.786Z,4.93
2022-11-03T06:13:05.299Z,5.75
2022-11-03T06:15:38.251Z,6.10
2022-11-03T06:18:20.823Z,5.18
2022-11-03T06:20:52.650Z,5.20
2022-11-03T06:23:21.293Z,4.88
2022-11-03T06:25:49.659Z,4.63
2022-11-03T06:28:26.580Z,4.57
2022-11-03T06:30:54.555Z,4.30
2022-11-03T06:33:29.765Z,5.30
2022-11-03T06:36:01.114Z,4.82
2022-11-03T06:38:32.299Z,5.35
2022-11-03T06:40:59.952Z,5.03
2022-11-03T06:43:29.050Z,4.88
2022-11-03T06:45:58.255Z,4.50
2022-11-03T06:48:31.463Z,4.78
2022-11-03T06:51:00.244Z,6.00
2022-11-03T06:53:30.095Z,5.25
2022-11-03T06:55:57.856Z,6.35
2022-11-03T06:58:31.071Z,6.10
2022-11-03T07:01:03.535Z,5.72
2022-11-03T07:03:33.627Z,6.15
2022-11-03T07:06:01.009Z,6.30
2022-11-03T07:08:28.469Z,6.82
2022-11-03T07:11:08.263Z,6.10
2022-11-03T07:13:35.909Z,6.20
2022-11-03T07:16:03.860Z,5.55
2022-11-03T07:18:35.697Z,6.18
2022-11-03T07:21:23.136Z,6.13
2022-11-03T07:23:50.593Z,5.45
2022-11-03T07:26:17.924Z,5.30
2022-11-03T07:28:48.801Z,6.30
2022-11-03T07:31:24.851Z,5.82
2022-11-03T07:33:56.666Z,5.35
2022-11-03T07:36:24.684Z,5.90
2022-11-03T07:38:53.916Z,5.50
2022-11-03T07:41:23.283Z,7.07
2022-11-03T07:43:58.808Z,7.05
2022-11-03T07:46:27.075Z,6.47
2022-11-03T07:48:57.174Z,6.90
2022-11-03T07:51:27.720Z,7.25
2022-11-03T07:53:57.317Z,7.75
2022-11-03T07:56:24.781Z,6.55
2022-11-03T07:58:55.107Z,6.93
2022-11-03T08:01:30.670Z,7.63
2022-11-03T08:04:02.622Z,6.90
2022-11-03T08:06:30.016Z,7.22
2022-11-03T08:08:57.712Z,7.13
2022-11-03T08:11:28.097Z,6.75
2022-11-03T08:13:57.027Z,7.30
2022-11-03T08:16:24.395Z,6.78
2022-11-03T08:18:51.907Z,7.05
2022-11-03T08:21:19.236Z,6.43
2022-11-03T08:23:47.804Z,7.03
2022-11-03T08:26:15.955Z,7.05
2022-11-03T08:28:43.323Z,6.35
2022-11-03T08:31:13.041Z,7.50
2022-11-03T08:33:41.316Z,6.22
2022-11-03T08:36:09.919Z,7.10
2022-11-03T08:38:37.551Z,6.47
2022-11-03T08:41:05.642Z,6.80
2022-11-03T08:43:32.898Z,7.70
2022-11-03T08:46:08.332Z,10.52
2022-11-03T08:48:40.456Z,12.05
2022-11-03T08:51:14.315Z,15.73
2022-11-03T08:53:44.962Z,23.73
2022-11-03T08:56:16.086Z,22.30
2022-11-03T08:58:45.464Z,24.13
2022-11-03T09:01:13.039Z,21.33
2022-11-03T09:03:41.172Z,23.05
2022-11-03T09:06:10.316Z,24.55
2022-11-03T09:11:28.404Z,18.02
2022-11-03T09:13:56.001Z,20.27
2022-11-03T09:16:23.399Z,21.13
2022-11-03T09:18:50.930Z,22.20
2022-11-03T09:21:18.638Z,21.00
2022-11-03T09:23:46.210Z,21.10
2022-11-03T09:26:13.577Z,20.95
2022-11-03T09:28:40.916Z,21.20
2022-11-03T09:31:08.393Z,19.95
2022-11-03T09:33:36.082Z,19.33
2022-11-03T09:36:03.616Z,17.27
2022-11-03T09:38:31.007Z,16.70
2022-11-03T09:40:59.932Z,18.20
2022-11-03T09:43:27.476Z,18.08
2022-11-03T09:45:55.049Z,18.85
2022-11-03T09:48:22.763Z,17.05
2022-11-03T09:50:52.756Z,19.17
2022-11-03T09:53:20.848Z,15.68
2022-11-03T09:55:48.334Z,15.60
2022-11-03T09:58:17.097Z,16.00
2022-11-03T10:00:45.200Z,15.18
2022-11-03T10:03:13.463Z,15.07
2022-11-03T10:05:41.284Z,14.45
2022-11-03T10:08:14.947Z,15.20
2022-11-03T10:10:43.574Z,12.65
2022-11-03T10:13:13.730Z,10.95
2022-11-03T10:15:42.317Z,12.65
2022-11-03T10:18:10.380Z,13.43
2022-11-03T10:20:38.059Z,12.60
2022-11-03T10:23:05.605Z,13.60
2022-11-03T10:25:37.795Z,12.35
2022-11-03T10:28:20.451Z,14.63
2022-11-03T10:31:17.545Z,13.73
2022-11-03T10:33:55.164Z,12.90
2022-11-03T10:36:30.219Z,13.70
2022-11-03T10:38:57.987Z,13.43
2022-11-03T10:41:30.041Z,12.40
2022-11-03T10:44:00.779Z,13.20
2022-11-03T10:49:17.630Z,12.68
2022-11-03T10:51:48.064Z,12.00
2022-11-03T10:54:16.703Z,12.50
2022-11-03T10:56:44.941Z,13.88
2022-11-03T10:59:32.634Z,13.00
2022-11-03T11:02:01.100Z,14.02
2022-11-03T11:04:29.546Z,13.23
2022-11-03T11:06:57.229Z,13.20
2022-11-03T11:09:28.266Z,11.25
2022-11-03T11:12:03.110Z,13.18
2022-11-03T11:14:30.575Z,12.82
2022-11-03T11:17:02.256Z,13.35
2022-11-03T11:19:30.066Z,12.75
2022-11-03T11:21:59.542Z,12.23
2022-11-03T11:24:48.887Z,12.48
2022-11-03T11:27:35.134Z,13.05
2022-11-03T11:30:08.130Z,12.80
2022-11-03T11:32:48.595Z,12.82
2022-11-03T11:35:27.869Z,13.57
2022-11-03T11:37:55.452Z,13.77
2022-11-03T11:40:25.549Z,14.88
2022-11-03T11:43:05.249Z,13.50
2022-11-03T11:45:51.619Z,12.45
2022-11-03T11:48:19.502Z,14.07
2022-11-03T11:50:47.211Z,14.32
2022-11-03T11:53:15.216Z,13.35
2022-11-03T11:55:44.872Z,13.75
2022-11-03T11:58:18.018Z,13.70
2022-11-03T12:01:00.191Z,13.65
2022-11-03T12:03:29.638Z,13.10
2022-11-03T12:05:57.246Z,12.45
2022-11-03T12:08:33.958Z,10.20
2022-11-03T12:11:05.943Z,10.02
2022-11-03T12:13:51.420Z,10.70
2022-11-03T12:16:29.108Z,11.00
2022-11-03T12:18:56.852Z,10.30
2022-11-03T12:21:54.178Z,10.63
2022-11-03T12:24:33.861Z,11.35
2022-11-03T12:27:01.635Z,10.93
2022-11-03T12:29:28.956Z,11.73
2022-11-03T12:31:56.550Z,10.95
2022-11-03T12:34:24.181Z,11.10
2022-11-03T12:36:55.976Z,10.98
2022-11-03T12:39:26.003Z,10.45
2022-11-03T12:41:53.629Z,11.48
2022-11-03T12:44:21.556Z,10.35
2022-11-03T12:46:53.876Z,11.52
2022-11-03T12:49:21.522Z,10.95
2022-11-03T12:51:48.969Z,12.13
2022-11-03T12:54:16.544Z,11.68
2022-11-03T12:56:44.368Z,11.77
2022-11-03T12:59:11.801Z,11.57
2022-11-03T13:01:39.307Z,11.05
2022-11-03T13:04:06.856Z,10.32
2022-11-03T13:06:34.394Z,10.48
2022-11-03T13:09:03.261Z,9.57
2022-11-03T13:11:49.453Z,10.20
2022-11-03T13:14:17.357Z,10.77
2022-11-03T13:16:45.071Z,10.18
2022-11-03T13:19:12.381Z,10.23
2022-11-03T13:21:39.795Z,11.13
2022-11-03T13:24:07.609Z,10.15
2022-11-03T13:26:35.495Z,10.52
2022-11-03T13:29:03.245Z,10.55
2022-11-03T13:31:32.064Z,10.90
2022-11-03T13:34:02.311Z,10.93
2022-11-03T13:36:30.359Z,10.88
2022-11-03T13:38:58.274Z,11.80
2022-11-03T13:41:28.542Z,11.15
2022-11-03T13:43:55.979Z,11.45
2022-11-03T13:46:23.492Z,10.73
2022-11-03T13:51:38.617Z,11.82
2022-11-03T13:59:40.825Z,11.18
2022-11-03T14:04:55.998Z,11.45
2022-11-03T14:07:23.793Z,11.40
2022-11-03T14:09:55.903Z,10.35
2022-11-03T14:12:31.200Z,10.65
2022-11-03T14:15:09.573Z,10.80
2022-11-03T14:17:37.007Z,11.27
2022-11-03T14:20:05.233Z,11.57
2022-11-03T14:22:32.851Z,10.18
2022-11-03T14:25:01.500Z,11.00
2022-11-03T14:27:29.446Z,10.85
2022-11-03T14:29:56.772Z,10.18
2022-11-03T14:32:24.388Z,10.80
2022-11-03T14:34:51.727Z,10.95
2022-11-03T14:37:19.618Z,11.63
2022-11-03T14:39:47.641Z,11.40
2022-11-03T14:42:16.725Z,11.52
2022-11-03T14:44:45.058Z,11.10
2022-11-03T14:47:13.723Z,12.65
2022-11-03T14:49:41.172Z,13.15
2022-11-03T14:52:08.868Z,14.20
2022-11-03T14:54:36.781Z,14.73
2022-11-03T14:57:04.651Z,14.95
2022-11-03T14:59:32.361Z,15.90
2022-11-03T15:02:00.402Z,16.52
2022-11-03T15:04:28.407Z,16.75
2022-11-03T15:06:55.935Z,18.13
2022-11-03T15:09:23.658Z,20.05
2022-11-03T15:11:51.444Z,19.35
2022-11-03T15:14:19.245Z,19.20
2022-11-03T15:16:47.189Z,20.73
2022-11-03T15:19:14.841Z,21.65
2022-11-03T15:21:42.733Z,21.67
2022-11-03T15:26:57.902Z,24.88
2022-11-03T15:29:25.351Z,28.20
2022-11-03T15:31:53.590Z,26.45
2022-11-03T15:34:24.494Z,26.15
2022-11-03T15:36:51.894Z,25.10
2022-11-03T15:39:19.661Z,23.30
2022-11-03T15:41:47.595Z,26.45
2022-11-03T15:44:15.631Z,26.95
2022-11-03T15:46:43.526Z,27.92
2022-11-03T15:49:10.857Z,25.83
2022-11-03T15:51:41.597Z,28.55
2022-11-03T15:54:29.476Z,23.52
2022-11-03T15:56:57.141Z,23.17
2022-11-03T15:59:24.802Z,22.95
2022-11-03T16:01:56.653Z,21.63
2022-11-03T16:04:27.423Z,22.02
2022-11-03T16:07:07.674Z,22.60
2022-11-03T16:09:35.600Z,22.55
2022-11-03T16:12:03.505Z,22.52
2022-11-03T16:14:30.816Z,20.90
2022-11-03T16:16:58.392Z,22.13
2022-11-03T16:19:26.076Z,21.30
2022-11-03T16:21:53.558Z,21.33
2022-11-03T16:24:21.194Z,20.60
2022-11-03T16:26:50.350Z,23.15
2022-11-03T16:29:18.126Z,20.20
2022-11-03T16:31:48.624Z,19.98
2022-11-03T16:34:16.044Z,19.58
2022-11-03T16:36:43.439Z,18.90
2022-11-03T16:39:12.468Z,17.85
2022-11-03T16:41:40.061Z,17.65
2022-11-03T16:44:08.483Z,18.02
2022-11-03T16:46:36.215Z,18.33
2022-11-03T16:49:03.915Z,18.08
2022-11-03T16:51:31.577Z,17.50
2022-11-03T16:53:59.904Z,16.80
2022-11-03T16:56:27.204Z,16.23
2022-11-03T16:58:54.863Z,17.35
2022-11-03T17:01:22.549Z,16.35
2022-11-03T17:03:51.339Z,17.52
2022-11-03T17:06:19.164Z,15.10
2022-11-03T17:08:52.443Z,14.55
2022-11-03T17:11:36.395Z,13.38
2022-11-03T17:14:08.132Z,13.15
2022-11-03T17:16:35.800Z,13.27
2022-11-03T17:19:03.383Z,13.02
2022-11-03T17:21:31.114Z,12.68
2022-11-03T17:24:00.017Z,17.05
2022-11-03T17:26:43.147Z,15.00
2022-11-03T17:29:14.700Z,12.27
2022-11-03T17:31:42.115Z,10.93
2022-11-03T17:34:12.152Z,11.65
2022-11-03T17:36:40.159Z,10.27
2022-11-03T17:39:07.741Z,10.40
2022-11-03T17:41:36.891Z,11.45
2022-11-03T17:44:04.506Z,11.52
2022-11-03T17:46:31.954Z,14.73
2022-11-03T17:49:00.865Z,13.23
2022-11-03T17:51:28.295Z,12.73
2022-11-03T17:53:55.820Z,12.85
2022-11-03T17:56:30.863Z,12.77
2022-11-03T17:58:58.744Z,14.00
2022-11-03T18:01:27.782Z,13.90
2022-11-03T18:04:03.072Z,13.13
2022-11-03T18:06:30.695Z,13.75
2022-11-03T18:08:59.675Z,13.93
2022-11-03T18:11:47.732Z,14.63
2022-11-03T18:14:15.340Z,14.70
2022-11-03T18:16:42.929Z,48.42
2022-11-03T18:19:12.810Z,20.42
2022-11-03T18:21:40.383Z,16.38
2022-11-03T18:24:14.870Z,14.70
2022-11-03T18:26:42.552Z,16.50
2022-11-03T18:29:10.786Z,18.00
2022-11-03T18:31:43.973Z,20.48
2022-11-03T18:34:14.056Z,20.60
2022-11-03T18:36:41.505Z,35.47
2022-11-03T18:39:12.264Z,26.00
2022-11-03T18:41:40.683Z,19.38
2022-11-03T18:44:16.418Z,17.88
2022-11-03T18:46:43.828Z,185.32
2022-11-03T18:49:11.276Z,92.85
2022-11-03T18:51:39.290Z,33.13
2022-11-03T18:54:13.632Z,30.77
2022-11-03T18:59:16.071Z,21.33
2022-11-03T19:01:44.383Z,18.02
2022-11-03T19:04:15.469Z,19.52
2022-11-03T19:06:44.002Z,17.42
2022-11-03T19:09:14.699Z,18.98
2022-11-03T19:11:42.331Z,21.88
2022-11-03T19:14:14.273Z,22.67
2022-11-03T19:17:08.809Z,22.33
2022-11-03T19:19:34.240Z,23.83
2022-11-03T19:22:02.411Z,22.65
2022-11-03T19:24:30.578Z,21.58
2022-11-03T19:27:01.069Z,23.10
2022-11-03T19:29:30.362Z,19.65
2022-11-03T19:31:57.933Z,16.75
2022-11-03T19:34:27.340Z,16.02
2022-11-03T19:36:55.315Z,14.40
2022-11-03T19:39:26.863Z,15.18
2022-11-03T19:42:13.296Z,15.77
2022-11-03T19:44:40.772Z,15.70
2022-11-03T19:47:11.609Z,16.45
2022-11-03T19:49:39.348Z,15.55
2022-11-03T19:52:07.104Z,18.80
2022-11-03T19:54:34.749Z,21.40
2022-11-03T19:57:02.207Z,23.05
2022-11-03T19:59:29.493Z,22.25
2022-11-03T20:01:57.273Z,18.60
2022-11-03T20:04:25.068Z,20.55
2022-11-03T20:06:52.839Z,19.73
2022-11-03T20:09:20.389Z,20.88
2022-11-03T20:11:47.790Z,19.13
2022-11-03T20:14:20.784Z,19.30
2022-11-03T20:16:48.279Z,16.38
2022-11-03T20:19:15.841Z,18.38
2022-11-03T20:21:43.449Z,19.17
2022-11-03T20:24:12.594Z,21.10
2022-11-03T20:26:40.252Z,20.42
2022-11-03T20:29:12.873Z,20.48
2022-11-03T20:31:40.752Z,22.40
2022-11-03T20:34:13.812Z,21.75
2022-11-03T20:36:41.884Z,20.52
2022-11-03T20:39:13.781Z,19.35
2022-11-03T20:41:47.689Z,18.58
2022-11-03T20:44:15.867Z,18.23
2022-11-03T20:46:43.667Z,18.58
2022-11-03T20:49:11.012Z,19.63
2022-11-03T20:51:43.051Z,18.10
2022-11-03T20:54:14.800Z,17.75
2022-11-03T20:56:42.464Z,16.92
2022-11-03T20:59:11.401Z,16.92
2022-11-03T21:01:39.149Z,33.95
2022-11-03T21:04:09.937Z,20.02
2022-11-03T21:06:38.084Z,16.83
2022-11-03T21:09:05.947Z,17.48
2022-11-03T21:11:40.170Z,17.75
2022-11-03T21:14:22.013Z,17.33
2022-11-03T21:17:11.092Z,16.63
2022-11-03T21:20:01.268Z,17.52
2022-11-03T21:22:55.908Z,15.43
2022-11-03T21:25:24.945Z,16.20
2022-11-03T21:27:54.009Z,18.48
2022-11-03T21:30:22.162Z,16.75
2022-11-03T21:32:49.870Z,16.25
2022-11-03T21:35:19.661Z,17.50
2022-11-03T21:37:47.261Z,15.90
2022-11-03T21:40:15.152Z,15.32
2022-11-03T21:43:01.236Z,17.20
2022-11-03T21:45:28.892Z,17.73
2022-11-03T21:48:18.512Z,17.13
2022-11-03T21:50:46.089Z,18.33
2022-11-03T21:53:13.839Z,18.23
2022-11-03T21:55:41.730Z,16.30
2022-11-03T21:58:09.617Z,16.38
2022-11-03T22:00:36.953Z,15.63
2022-11-03T22:03:04.350Z,15.63
2022-11-03T22:05:32.073Z,17.52
2022-11-03T22:07:59.354Z,16.25
2022-11-03T22:10:26.768Z,15.85
2022-11-03T22:12:54.056Z,14.63
2022-11-03T22:15:40.188Z,17.40
2022-11-03T22:18:08.212Z,18.42
2022-11-03T22:20:57.304Z,16.67
2022-11-03T22:23:43.318Z,16.55
2022-11-03T22:26:30.305Z,17.45
2022-11-03T22:29:19.301Z,17.30
2022-11-03T22:31:46.877Z,17.98
2022-11-03T22:34:33.032Z,17.65
2022-11-03T22:37:00.395Z,17.75
2022-11-03T22:39:46.458Z,20.15
2022-11-03T22:42:32.610Z,18.95
2022-11-03T22:45:18.852Z,17.38
2022-11-03T22:47:46.181Z,17.27
2022-11-03T22:50:13.503Z,16.90
2022-11-03T22:52:41.117Z,17.95
2022-11-03T22:55:08.424Z,37.65
2022-11-03T22:57:35.876Z,23.33
2022-11-03T23:00:05.970Z,22.73
2022-11-03T23:02:33.604Z,20.30
2022-11-03T23:05:01.059Z,19.15
2022-11-03T23:07:32.222Z,28.58
2022-11-03T23:10:05.022Z,23.38
2022-11-03T23:12:32.615Z,23.88
2022-11-03T23:15:18.694Z,21.13
2022-11-03T23:18:04.781Z,24.42
2022-11-03T23:20:50.607Z,26.10
2022-11-03T23:23:37.912Z,22.52
2022-11-03T23:26:05.459Z,20.63
2022-11-03T23:28:32.765Z,21.02
2022-11-03T23:31:00.325Z,20.00
2022-11-03T23:33:27.615Z,18.73
2022-11-03T23:35:55.761Z,18.05
2022-11-03T23:38:23.451Z,18.77
2022-11-03T23:40:50.759Z,19.08
2022-11-03T23:43:18.413Z,18.73
2022-11-03T23:46:04.767Z,19.42
2022-11-03T23:48:47.084Z,17.92
2022-11-03T23:51:18.026Z,18.77
2022-11-03T23:53:45.688Z,20.10
2022-11-03T23:56:33.153Z,17.55
2022-11-03T23:59:00.793Z,16.05
